sensor_id;sensor_type;location;lat;lon;timestamp;temperature;humidity
5459;DHT22;2752;49.992;8.422;2023-04-23T00:00:22;12.80;99.90
5459;DHT22;2752;49.992;8.422;2023-04-23T00:02:52;12.70;99.90
5459;DHT22;2752;49.992;8.422;2023-04-23T00:05:20;12.80;99.90
5459;DHT22;2752;49.992;8.422;2023-04-23T00:07:48;12.70;99.90
5459;DHT22;2752;49.992;8.422;2023-04-23T00:10:16;12.70;99.90
5459;DHT22;2752;49.992;8.422;2023-04-23T00:12:44;12.70;99.90
5459;DHT22;2752;49.992;8.422;2023-04-23T00:15:13;12.70;99.90
5459;DHT22;2752;49.992;8.422;2023-04-23T00:17:40;12.70;99.90
5459;DHT22;2752;49.992;8.422;2023-04-23T00:20:08;12.70;99.90
5459;DHT22;2752;49.992;8.422;2023-04-23T00:22:34;12.60;99.90
5459;DHT22;2752;49.992;8.422;2023-04-23T00:25:01;12.60;99.90
5459;DHT22;2752;49.992;8.422;2023-04-23T00:27:29;12.60;99.90
5459;DHT22;2752;49.992;8.422;2023-04-23T00:29:56;12.60;99.90
5459;DHT22;2752;49.992;8.422;2023-04-23T00:32:22;12.60;99.90
5459;DHT22;2752;49.992;8.422;2023-04-23T00:34:49;12.60;99.90
5459;DHT22;2752;49.992;8.422;2023-04-23T00:37:16;12.60;99.90
5459;DHT22;2752;49.992;8.422;2023-04-23T00:39:43;12.60;99.90
5459;DHT22;2752;49.992;8.422;2023-04-23T00:42:10;12.60;99.90
5459;DHT22;2752;49.992;8.422;2023-04-23T00:44:38;12.60;99.90
5459;DHT22;2752;49.992;8.422;2023-04-23T00:47:06;12.60;99.90
5459;DHT22;2752;49.992;8.422;2023-04-23T00:49:33;12.60;99.90
5459;DHT22;2752;49.992;8.422;2023-04-23T00:52:00;12.70;99.90
5459;DHT22;2752;49.992;8.422;2023-04-23T00:54:26;12.60;99.90
5459;DHT22;2752;49.992;8.422;2023-04-23T00:56:54;12.60;99.90
5459;DHT22;2752;49.992;8.422;2023-04-23T00:59:22;12.60;99.90
5459;DHT22;2752;49.992;8.422;2023-04-23T01:01:51;12.60;99.90
5459;DHT22;2752;49.992;8.422;2023-04-23T01:04:18;12.60;99.90
5459;DHT22;2752;49.992;8.422;2023-04-23T01:06:47;12.50;99.90
5459;DHT22;2752;49.992;8.422;2023-04-23T01:09:14;12.50;99.90
5459;DHT22;2752;49.992;8.422;2023-04-23T01:11:43;12.50;99.90
5459;DHT22;2752;49.992;8.422;2023-04-23T01:14:10;12.50;99.90
5459;DHT22;2752;49.992;8.422;2023-04-23T01:16:37;12.50;99.90
5459;DHT22;2752;49.992;8.422;2023-04-23T01:19:06;12.50;99.90
5459;DHT22;2752;49.992;8.422;2023-04-23T01:21:34;12.50;99.90
5459;DHT22;2752;49.992;8.422;2023-04-23T01:24:03;12.50;99.90
5459;DHT22;2752;49.992;8.422;2023-04-23T01:26:30;12.50;99.90
5459;DHT22;2752;49.992;8.422;2023-04-23T01:28:58;12.50;99.90
5459;DHT22;2752;49.992;8.422;2023-04-23T01:31:25;12.50;99.90
5459;DHT22;2752;49.992;8.422;2023-04-23T01:33:52;12.40;99.90
5459;DHT22;2752;49.992;8.422;2023-04-23T01:36:19;12.40;99.90
5459;DHT22;2752;49.992;8.422;2023-04-23T01:38:46;12.40;99.90
5459;DHT22;2752;49.992;8.422;2023-04-23T01:41:14;12.40;99.90
5459;DHT22;2752;49.992;8.422;2023-04-23T01:43:41;12.40;99.90
5459;DHT22;2752;49.992;8.422;2023-04-23T01:46:08;12.40;99.90
5459;DHT22;2752;49.992;8.422;2023-04-23T01:48:35;12.40;99.90
5459;DHT22;2752;49.992;8.422;2023-04-23T01:51:03;12.40;99.90
5459;DHT22;2752;49.992;8.422;2023-04-23T01:53:30;12.40;99.90
5459;DHT22;2752;49.992;8.422;2023-04-23T01:55:59;12.40;99.90
5459;DHT22;2752;49.992;8.422;2023-04-23T01:58:27;12.40;99.90
5459;DHT22;2752;49.992;8.422;2023-04-23T02:00:54;12.40;99.90
5459;DHT22;2752;49.992;8.422;2023-04-23T02:03:20;12.40;99.90
5459;DHT22;2752;49.992;8.422;2023-04-23T02:05:49;12.40;99.90
5459;DHT22;2752;49.992;8.422;2023-04-23T02:08:19;12.40;99.90
5459;DHT22;2752;49.992;8.422;2023-04-23T02:10:45;12.40;99.90
5459;DHT22;2752;49.992;8.422;2023-04-23T02:13:12;12.40;99.90
5459;DHT22;2752;49.992;8.422;2023-04-23T02:15:40;12.40;99.90
5459;DHT22;2752;49.992;8.422;2023-04-23T02:18:07;12.40;99.90
5459;DHT22;2752;49.992;8.422;2023-04-23T02:20:34;12.40;99.90
5459;DHT22;2752;49.992;8.422;2023-04-23T02:23:05;12.30;99.90
5459;DHT22;2752;49.992;8.422;2023-04-23T02:25:31;12.30;99.90
5459;DHT22;2752;49.992;8.422;2023-04-23T02:27:58;12.30;99.90
5459;DHT22;2752;49.992;8.422;2023-04-23T02:30:26;12.30;99.90
5459;DHT22;2752;49.992;8.422;2023-04-23T02:32:54;12.30;99.90
5459;DHT22;2752;49.992;8.422;2023-04-23T02:35:21;12.30;99.90
5459;DHT22;2752;49.992;8.422;2023-04-23T02:37:48;12.30;99.90
5459;DHT22;2752;49.992;8.422;2023-04-23T02:40:15;12.30;99.90
5459;DHT22;2752;49.992;8.422;2023-04-23T02:42:41;12.30;99.90
5459;DHT22;2752;49.992;8.422;2023-04-23T02:45:09;12.40;99.90
5459;DHT22;2752;49.992;8.422;2023-04-23T02:47:35;12.40;99.90
5459;DHT22;2752;49.992;8.422;2023-04-23T02:50:04;12.40;99.90
5459;DHT22;2752;49.992;8.422;2023-04-23T02:52:32;12.40;99.90
5459;DHT22;2752;49.992;8.422;2023-04-23T02:54:59;12.40;99.90
5459;DHT22;2752;49.992;8.422;2023-04-23T02:57:26;12.30;99.90
5459;DHT22;2752;49.992;8.422;2023-04-23T02:59:53;12.30;99.90
5459;DHT22;2752;49.992;8.422;2023-04-23T03:02:19;12.30;99.90
5459;DHT22;2752;49.992;8.422;2023-04-23T03:04:46;12.30;99.90
5459;DHT22;2752;49.992;8.422;2023-04-23T03:07:14;12.30;99.90
5459;DHT22;2752;49.992;8.422;2023-04-23T03:09:41;12.30;99.90
5459;DHT22;2752;49.992;8.422;2023-04-23T03:12:08;12.20;99.90
5459;DHT22;2752;49.992;8.422;2023-04-23T03:14:35;12.20;99.90
5459;DHT22;2752;49.992;8.422;2023-04-23T03:17:01;12.20;99.90
5459;DHT22;2752;49.992;8.422;2023-04-23T03:19:28;12.20;99.90
5459;DHT22;2752;49.992;8.422;2023-04-23T03:21:55;12.20;99.90
5459;DHT22;2752;49.992;8.422;2023-04-23T03:24:23;12.20;99.90
5459;DHT22;2752;49.992;8.422;2023-04-23T03:26:50;12.20;99.90
5459;DHT22;2752;49.992;8.422;2023-04-23T03:29:17;12.20;99.90
5459;DHT22;2752;49.992;8.422;2023-04-23T03:31:43;12.20;99.90
5459;DHT22;2752;49.992;8.422;2023-04-23T03:34:10;12.20;99.90
5459;DHT22;2752;49.992;8.422;2023-04-23T03:36:36;12.20;99.90
5459;DHT22;2752;49.992;8.422;2023-04-23T03:39:03;12.20;99.90
5459;DHT22;2752;49.992;8.422;2023-04-23T03:41:31;12.20;99.90
5459;DHT22;2752;49.992;8.422;2023-04-23T03:43:58;12.20;99.90
5459;DHT22;2752;49.992;8.422;2023-04-23T03:46:24;12.20;99.90
5459;DHT22;2752;49.992;8.422;2023-04-23T03:48:51;12.20;99.90
5459;DHT22;2752;49.992;8.422;2023-04-23T03:51:18;12.20;99.90
5459;DHT22;2752;49.992;8.422;2023-04-23T03:53:44;12.10;99.90
5459;DHT22;2752;49.992;8.422;2023-04-23T03:56:11;12.10;99.90
5459;DHT22;2752;49.992;8.422;2023-04-23T03:58:39;12.10;99.90
5459;DHT22;2752;49.992;8.422;2023-04-23T04:01:06;12.10;99.90
5459;DHT22;2752;49.992;8.422;2023-04-23T04:03:32;12.00;99.90
5459;DHT22;2752;49.992;8.422;2023-04-23T04:05:59;12.10;99.90
5459;DHT22;2752;49.992;8.422;2023-04-23T04:08:26;12.00;99.90
5459;DHT22;2752;49.992;8.422;2023-04-23T04:10:54;12.00;99.90
5459;DHT22;2752;49.992;8.422;2023-04-23T04:13:20;12.00;99.90
5459;DHT22;2752;49.992;8.422;2023-04-23T04:15:48;12.00;99.90
5459;DHT22;2752;49.992;8.422;2023-04-23T04:18:15;12.00;99.90
5459;DHT22;2752;49.992;8.422;2023-04-23T04:20:42;12.00;99.90
5459;DHT22;2752;49.992;8.422;2023-04-23T04:23:09;12.10;99.90
5459;DHT22;2752;49.992;8.422;2023-04-23T04:25:36;12.00;99.90
5459;DHT22;2752;49.992;8.422;2023-04-23T04:28:04;12.10;99.90
5459;DHT22;2752;49.992;8.422;2023-04-23T04:30:32;12.10;99.90
5459;DHT22;2752;49.992;8.422;2023-04-23T04:33:00;12.10;99.90
5459;DHT22;2752;49.992;8.422;2023-04-23T04:35:26;12.10;99.90
5459;DHT22;2752;49.992;8.422;2023-04-23T04:37:53;12.00;99.90
5459;DHT22;2752;49.992;8.422;2023-04-23T04:40:20;12.00;99.90
5459;DHT22;2752;49.992;8.422;2023-04-23T04:42:46;12.00;99.90
5459;DHT22;2752;49.992;8.422;2023-04-23T04:45:13;12.00;99.90
5459;DHT22;2752;49.992;8.422;2023-04-23T04:47:41;12.00;99.90
5459;DHT22;2752;49.992;8.422;2023-04-23T04:50:10;12.00;99.90
5459;DHT22;2752;49.992;8.422;2023-04-23T04:52:36;12.00;99.90
5459;DHT22;2752;49.992;8.422;2023-04-23T04:55:04;12.00;99.90
5459;DHT22;2752;49.992;8.422;2023-04-23T04:57:31;12.10;99.90
5459;DHT22;2752;49.992;8.422;2023-04-23T05:00:00;12.10;99.90
5459;DHT22;2752;49.992;8.422;2023-04-23T05:02:28;12.10;99.90
5459;DHT22;2752;49.992;8.422;2023-04-23T05:04:55;12.10;99.90
5459;DHT22;2752;49.992;8.422;2023-04-23T05:07:24;12.10;99.90
5459;DHT22;2752;49.992;8.422;2023-04-23T05:09:50;12.10;99.90
5459;DHT22;2752;49.992;8.422;2023-04-23T05:12:17;12.20;99.90
5459;DHT22;2752;49.992;8.422;2023-04-23T05:14:43;12.20;99.90
5459;DHT22;2752;49.992;8.422;2023-04-23T05:17:11;12.20;99.90
5459;DHT22;2752;49.992;8.422;2023-04-23T05:19:37;12.20;99.90
5459;DHT22;2752;49.992;8.422;2023-04-23T05:22:04;12.20;99.90
5459;DHT22;2752;49.992;8.422;2023-04-23T05:24:32;12.20;99.90
5459;DHT22;2752;49.992;8.422;2023-04-23T05:26:59;12.20;99.90
5459;DHT22;2752;49.992;8.422;2023-04-23T05:29:26;12.20;99.90
5459;DHT22;2752;49.992;8.422;2023-04-23T05:31:52;12.20;99.90
5459;DHT22;2752;49.992;8.422;2023-04-23T05:34:19;12.20;99.90
5459;DHT22;2752;49.992;8.422;2023-04-23T05:36:45;12.30;99.90
5459;DHT22;2752;49.992;8.422;2023-04-23T05:39:12;12.30;99.90
5459;DHT22;2752;49.992;8.422;2023-04-23T05:41:40;12.40;99.90
5459;DHT22;2752;49.992;8.422;2023-04-23T05:44:07;12.40;99.90
5459;DHT22;2752;49.992;8.422;2023-04-23T05:46:33;12.50;99.90
5459;DHT22;2752;49.992;8.422;2023-04-23T05:49:00;12.50;99.90
5459;DHT22;2752;49.992;8.422;2023-04-23T05:51:27;12.60;99.90
5459;DHT22;2752;49.992;8.422;2023-04-23T05:53:55;12.70;99.90
5459;DHT22;2752;49.992;8.422;2023-04-23T05:56:21;12.70;99.20
5459;DHT22;2752;49.992;8.422;2023-04-23T05:58:49;12.70;97.70
5459;DHT22;2752;49.992;8.422;2023-04-23T06:01:16;12.70;97.10
5459;DHT22;2752;49.992;8.422;2023-04-23T06:03:43;12.70;97.10
5459;DHT22;2752;49.992;8.422;2023-04-23T06:06:10;12.70;96.40
5459;DHT22;2752;49.992;8.422;2023-04-23T06:08:37;12.90;96.20
5459;DHT22;2752;49.992;8.422;2023-04-23T06:11:04;13.00;93.90
5459;DHT22;2752;49.992;8.422;2023-04-23T06:13:31;13.00;93.30
5459;DHT22;2752;49.992;8.422;2023-04-23T06:15:59;13.00;91.30
5459;DHT22;2752;49.992;8.422;2023-04-23T06:18:26;13.10;91.10
5459;DHT22;2752;49.992;8.422;2023-04-23T06:20:53;13.30;86.80
5459;DHT22;2752;49.992;8.422;2023-04-23T06:23:21;13.30;83.30
5459;DHT22;2752;49.992;8.422;2023-04-23T06:25:47;13.30;82.10
5459;DHT22;2752;49.992;8.422;2023-04-23T06:28:14;13.40;78.50
5459;DHT22;2752;49.992;8.422;2023-04-23T06:30:41;13.40;78.10
5459;DHT22;2752;49.992;8.422;2023-04-23T06:33:09;13.50;75.70
5459;DHT22;2752;49.992;8.422;2023-04-23T06:35:36;13.50;73.20
5459;DHT22;2752;49.992;8.422;2023-04-23T06:38:03;13.60;70.10
5459;DHT22;2752;49.992;8.422;2023-04-23T06:40:30;13.60;71.20
5459;DHT22;2752;49.992;8.422;2023-04-23T06:42:57;13.70;69.90
5459;DHT22;2752;49.992;8.422;2023-04-23T06:45:29;13.80;68.00
5459;DHT22;2752;49.992;8.422;2023-04-23T06:47:57;13.90;58.90
5459;DHT22;2752;49.992;8.422;2023-04-23T06:50:26;14.00;60.20
5459;DHT22;2752;49.992;8.422;2023-04-23T06:52:54;14.10;57.70
5459;DHT22;2752;49.992;8.422;2023-04-23T06:55:21;14.10;56.50
5459;DHT22;2752;49.992;8.422;2023-04-23T06:57:50;14.20;59.20
5459;DHT22;2752;49.992;8.422;2023-04-23T07:00:17;14.30;58.10
5459;DHT22;2752;49.992;8.422;2023-04-23T07:02:44;14.50;52.80
5459;DHT22;2752;49.992;8.422;2023-04-23T07:05:11;14.70;48.80
5459;DHT22;2752;49.992;8.422;2023-04-23T07:07:40;14.80;46.40
5459;DHT22;2752;49.992;8.422;2023-04-23T07:10:09;15.00;47.30
5459;DHT22;2752;49.992;8.422;2023-04-23T07:12:36;15.20;43.00
5459;DHT22;2752;49.992;8.422;2023-04-23T07:15:04;15.50;35.50
5459;DHT22;2752;49.992;8.422;2023-04-23T07:17:31;15.70;38.00
5459;DHT22;2752;49.992;8.422;2023-04-23T07:19:58;15.80;30.60
5459;DHT22;2752;49.992;8.422;2023-04-23T07:22:28;16.00;24.20
5459;DHT22;2752;49.992;8.422;2023-04-23T07:24:56;16.10;27.20
5459;DHT22;2752;49.992;8.422;2023-04-23T07:27:23;16.20;28.40
5459;DHT22;2752;49.992;8.422;2023-04-23T07:29:50;16.30;30.10
5459;DHT22;2752;49.992;8.422;2023-04-23T07:32:16;16.50;23.40
5459;DHT22;2752;49.992;8.422;2023-04-23T07:34:43;16.50;22.20
5459;DHT22;2752;49.992;8.422;2023-04-23T07:37:10;16.60;22.00
5459;DHT22;2752;49.992;8.422;2023-04-23T07:39:36;16.70;13.80
5459;DHT22;2752;49.992;8.422;2023-04-23T07:42:04;16.60;12.30
5459;DHT22;2752;49.992;8.422;2023-04-23T07:44:31;16.50;18.30
5459;DHT22;2752;49.992;8.422;2023-04-23T07:46:58;16.50;18.30
5459;DHT22;2752;49.992;8.422;2023-04-23T07:49:25;16.50;18.50
5459;DHT22;2752;49.992;8.422;2023-04-23T07:51:52;16.30;18.20
5459;DHT22;2752;49.992;8.422;2023-04-23T07:54:19;16.20;20.20
5459;DHT22;2752;49.992;8.422;2023-04-23T07:56:46;16.10;23.10
5459;DHT22;2752;49.992;8.422;2023-04-23T07:59:14;16.20;25.70
5459;DHT22;2752;49.992;8.422;2023-04-23T08:01:40;16.30;20.60
5459;DHT22;2752;49.992;8.422;2023-04-23T08:04:07;16.20;20.50
5459;DHT22;2752;49.992;8.422;2023-04-23T08:06:34;16.20;20.00
5459;DHT22;2752;49.992;8.422;2023-04-23T08:09:00;16.20;18.30
5459;DHT22;2752;49.992;8.422;2023-04-23T08:11:30;16.30;15.40
5459;DHT22;2752;49.992;8.422;2023-04-23T08:13:57;16.30;12.20
5459;DHT22;2752;49.992;8.422;2023-04-23T08:16:27;16.20;11.40
5459;DHT22;2752;49.992;8.422;2023-04-23T08:18:53;16.20;12.00
5459;DHT22;2752;49.992;8.422;2023-04-23T08:21:20;16.40;9.70
5459;DHT22;2752;49.992;8.422;2023-04-23T08:23:48;16.50;8.90
5459;DHT22;2752;49.992;8.422;2023-04-23T08:26:14;16.70;3.80
5459;DHT22;2752;49.992;8.422;2023-04-23T08:28:41;16.90;1.00
5459;DHT22;2752;49.992;8.422;2023-04-23T08:31:08;16.90;1.00
5459;DHT22;2752;49.992;8.422;2023-04-23T08:33:36;16.90;1.00
5459;DHT22;2752;49.992;8.422;2023-04-23T08:36:03;16.80;1.00
5459;DHT22;2752;49.992;8.422;2023-04-23T08:38:29;16.90;1.00
5459;DHT22;2752;49.992;8.422;2023-04-23T08:40:59;16.80;1.00
5459;DHT22;2752;49.992;8.422;2023-04-23T08:43:31;16.60;1.00
5459;DHT22;2752;49.992;8.422;2023-04-23T08:46:01;16.70;1.00
5459;DHT22;2752;49.992;8.422;2023-04-23T08:48:29;16.80;1.00
5459;DHT22;2752;49.992;8.422;2023-04-23T08:50:58;16.90;1.00
5459;DHT22;2752;49.992;8.422;2023-04-23T08:53:27;16.70;1.00
5459;DHT22;2752;49.992;8.422;2023-04-23T08:55:57;16.70;1.00
5459;DHT22;2752;49.992;8.422;2023-04-23T08:58:24;16.90;1.00
5459;DHT22;2752;49.992;8.422;2023-04-23T09:00:52;17.00;1.00
5459;DHT22;2752;49.992;8.422;2023-04-23T09:03:20;17.30;1.00
5459;DHT22;2752;49.992;8.422;2023-04-23T09:05:48;17.50;1.00
5459;DHT22;2752;49.992;8.422;2023-04-23T09:08:19;17.40;1.00
5459;DHT22;2752;49.992;8.422;2023-04-23T09:10:46;17.50;1.00
5459;DHT22;2752;49.992;8.422;2023-04-23T09:13:14;17.80;1.00
5459;DHT22;2752;49.992;8.422;2023-04-23T09:15:41;18.00;1.00
5459;DHT22;2752;49.992;8.422;2023-04-23T09:18:08;18.20;1.00
5459;DHT22;2752;49.992;8.422;2023-04-23T09:20:36;18.20;1.00
5459;DHT22;2752;49.992;8.422;2023-04-23T09:23:06;18.00;1.00
5459;DHT22;2752;49.992;8.422;2023-04-23T09:25:34;17.90;1.00
5459;DHT22;2752;49.992;8.422;2023-04-23T09:28:01;18.00;1.00
5459;DHT22;2752;49.992;8.422;2023-04-23T09:30:38;18.00;1.00
5459;DHT22;2752;49.992;8.422;2023-04-23T09:33:04;18.20;1.00
5459;DHT22;2752;49.992;8.422;2023-04-23T09:35:32;18.50;1.00
5459;DHT22;2752;49.992;8.422;2023-04-23T09:38:00;18.60;1.00
5459;DHT22;2752;49.992;8.422;2023-04-23T09:40:30;18.70;1.00
5459;DHT22;2752;49.992;8.422;2023-04-23T09:42:58;18.40;1.00
5459;DHT22;2752;49.992;8.422;2023-04-23T09:45:29;18.40;1.00
5459;DHT22;2752;49.992;8.422;2023-04-23T09:47:57;18.40;1.00
5459;DHT22;2752;49.992;8.422;2023-04-23T09:50:32;18.50;1.00
5459;DHT22;2752;49.992;8.422;2023-04-23T09:52:58;18.70;1.00
5459;DHT22;2752;49.992;8.422;2023-04-23T09:55:29;18.70;1.00
5459;DHT22;2752;49.992;8.422;2023-04-23T09:58:01;18.70;1.00
5459;DHT22;2752;49.992;8.422;2023-04-23T10:00:32;18.60;1.00
5459;DHT22;2752;49.992;8.422;2023-04-23T10:02:59;18.60;1.00
5459;DHT22;2752;49.992;8.422;2023-04-23T10:05:26;18.60;1.00
5459;DHT22;2752;49.992;8.422;2023-04-23T10:07:54;18.80;1.00
5459;DHT22;2752;49.992;8.422;2023-04-23T10:10:21;18.60;1.00
5459;DHT22;2752;49.992;8.422;2023-04-23T10:12:51;18.70;1.00
5459;DHT22;2752;49.992;8.422;2023-04-23T10:15:19;18.60;1.00
5459;DHT22;2752;49.992;8.422;2023-04-23T10:17:46;18.50;1.00
5459;DHT22;2752;49.992;8.422;2023-04-23T10:20:13;18.50;1.00
5459;DHT22;2752;49.992;8.422;2023-04-23T10:22:43;18.50;1.00
5459;DHT22;2752;49.992;8.422;2023-04-23T10:25:11;18.50;1.00
5459;DHT22;2752;49.992;8.422;2023-04-23T10:27:39;18.50;1.00
5459;DHT22;2752;49.992;8.422;2023-04-23T10:30:08;18.40;1.00
5459;DHT22;2752;49.992;8.422;2023-04-23T10:32:37;18.30;1.00
5459;DHT22;2752;49.992;8.422;2023-04-23T10:35:04;18.40;1.00
5459;DHT22;2752;49.992;8.422;2023-04-23T10:37:32;18.40;1.00
5459;DHT22;2752;49.992;8.422;2023-04-23T10:40:04;18.50;1.00
5459;DHT22;2752;49.992;8.422;2023-04-23T10:42:36;18.60;1.00
5459;DHT22;2752;49.992;8.422;2023-04-23T10:45:11;18.70;1.00
5459;DHT22;2752;49.992;8.422;2023-04-23T10:47:41;18.70;1.00
5459;DHT22;2752;49.992;8.422;2023-04-23T10:50:19;18.70;1.00
5459;DHT22;2752;49.992;8.422;2023-04-23T10:52:46;18.80;1.00
5459;DHT22;2752;49.992;8.422;2023-04-23T10:55:19;18.90;1.00
5459;DHT22;2752;49.992;8.422;2023-04-23T10:57:56;18.80;1.00
5459;DHT22;2752;49.992;8.422;2023-04-23T11:00:24;18.70;1.00
5459;DHT22;2752;49.992;8.422;2023-04-23T11:02:52;18.70;1.00
5459;DHT22;2752;49.992;8.422;2023-04-23T11:05:19;18.70;1.00
5459;DHT22;2752;49.992;8.422;2023-04-23T11:08:01;18.60;1.00
5459;DHT22;2752;49.992;8.422;2023-04-23T11:10:30;18.50;1.00
5459;DHT22;2752;49.992;8.422;2023-04-23T11:12:57;18.50;1.00
5459;DHT22;2752;49.992;8.422;2023-04-23T11:15:23;18.40;1.00
5459;DHT22;2752;49.992;8.422;2023-04-23T11:17:59;18.40;1.00
5459;DHT22;2752;49.992;8.422;2023-04-23T11:20:26;18.40;1.00
5459;DHT22;2752;49.992;8.422;2023-04-23T11:22:53;18.30;1.00
5459;DHT22;2752;49.992;8.422;2023-04-23T11:25:22;18.20;1.00
5459;DHT22;2752;49.992;8.422;2023-04-23T11:27:50;18.20;1.00
5459;DHT22;2752;49.992;8.422;2023-04-23T11:30:19;18.00;1.00
5459;DHT22;2752;49.992;8.422;2023-04-23T11:32:48;17.90;1.00
5459;DHT22;2752;49.992;8.422;2023-04-23T11:35:17;17.90;1.00
5459;DHT22;2752;49.992;8.422;2023-04-23T11:37:44;18.00;1.00
5459;DHT22;2752;49.992;8.422;2023-04-23T11:40:15;18.00;1.00
5459;DHT22;2752;49.992;8.422;2023-04-23T11:42:45;18.20;1.00
5459;DHT22;2752;49.992;8.422;2023-04-23T11:45:19;18.50;1.00
5459;DHT22;2752;49.992;8.422;2023-04-23T11:47:49;18.90;1.00
5459;DHT22;2752;49.992;8.422;2023-04-23T11:50:19;19.40;1.00
5459;DHT22;2752;49.992;8.422;2023-04-23T11:52:46;19.50;1.00
5459;DHT22;2752;49.992;8.422;2023-04-23T11:55:13;19.50;1.00
5459;DHT22;2752;49.992;8.422;2023-04-23T11:57:42;19.60;1.00
5459;DHT22;2752;49.992;8.422;2023-04-23T12:00:14;19.60;1.00
5459;DHT22;2752;49.992;8.422;2023-04-23T12:02:51;19.90;1.00
5459;DHT22;2752;49.992;8.422;2023-04-23T12:05:20;19.80;1.00
5459;DHT22;2752;49.992;8.422;2023-04-23T12:07:49;19.80;1.00
5459;DHT22;2752;49.992;8.422;2023-04-23T12:10:17;19.70;1.00
5459;DHT22;2752;49.992;8.422;2023-04-23T12:12:48;19.80;1.00
5459;DHT22;2752;49.992;8.422;2023-04-23T12:15:15;19.80;1.00
5459;DHT22;2752;49.992;8.422;2023-04-23T12:17:41;20.00;1.00
5459;DHT22;2752;49.992;8.422;2023-04-23T12:20:09;20.30;1.00
5459;DHT22;2752;49.992;8.422;2023-04-23T12:22:39;20.70;1.00
5459;DHT22;2752;49.992;8.422;2023-04-23T12:25:06;20.90;1.00
5459;DHT22;2752;49.992;8.422;2023-04-23T12:27:38;21.10;1.00
5459;DHT22;2752;49.992;8.422;2023-04-23T12:30:06;21.40;1.00
5459;DHT22;2752;49.992;8.422;2023-04-23T12:35:00;21.30;1.00
5459;DHT22;2752;49.992;8.422;2023-04-23T12:37:34;21.20;1.00
5459;DHT22;2752;49.992;8.422;2023-04-23T12:40:03;21.30;1.00
5459;DHT22;2752;49.992;8.422;2023-04-23T12:42:32;20.90;1.00
5459;DHT22;2752;49.992;8.422;2023-04-23T12:45:05;20.60;1.00
5459;DHT22;2752;49.992;8.422;2023-04-23T12:47:32;20.50;1.00
5459;DHT22;2752;49.992;8.422;2023-04-23T12:49:59;20.60;1.00
5459;DHT22;2752;49.992;8.422;2023-04-23T12:52:25;20.90;1.00
5459;DHT22;2752;49.992;8.422;2023-04-23T12:54:52;21.50;1.00
5459;DHT22;2752;49.992;8.422;2023-04-23T12:57:21;21.70;1.00
5459;DHT22;2752;49.992;8.422;2023-04-23T12:59:48;21.60;1.00
5459;DHT22;2752;49.992;8.422;2023-04-23T13:02:15;21.50;1.00
5459;DHT22;2752;49.992;8.422;2023-04-23T13:04:42;21.80;1.00
5459;DHT22;2752;49.992;8.422;2023-04-23T13:07:08;21.60;1.00
5459;DHT22;2752;49.992;8.422;2023-04-23T13:09:35;21.70;1.00
5459;DHT22;2752;49.992;8.422;2023-04-23T13:12:01;21.60;1.00
5459;DHT22;2752;49.992;8.422;2023-04-23T13:14:29;21.60;1.00
5459;DHT22;2752;49.992;8.422;2023-04-23T13:16:56;21.70;1.00
5459;DHT22;2752;49.992;8.422;2023-04-23T13:19:23;21.80;1.00
5459;DHT22;2752;49.992;8.422;2023-04-23T13:21:50;21.90;1.00
5459;DHT22;2752;49.992;8.422;2023-04-23T13:24:16;22.00;1.00
5459;DHT22;2752;49.992;8.422;2023-04-23T13:26:43;21.90;1.00
5459;DHT22;2752;49.992;8.422;2023-04-23T13:29:10;21.90;1.00
5459;DHT22;2752;49.992;8.422;2023-04-23T13:31:38;21.90;1.00
5459;DHT22;2752;49.992;8.422;2023-04-23T13:34:05;21.90;1.00
5459;DHT22;2752;49.992;8.422;2023-04-23T13:36:31;21.80;1.00
5459;DHT22;2752;49.992;8.422;2023-04-23T13:38:58;21.80;1.00
5459;DHT22;2752;49.992;8.422;2023-04-23T13:41:24;21.50;1.00
5459;DHT22;2752;49.992;8.422;2023-04-23T13:43:51;21.50;1.00
5459;DHT22;2752;49.992;8.422;2023-04-23T13:46:18;21.20;1.00
5459;DHT22;2752;49.992;8.422;2023-04-23T13:48:46;20.90;1.00
5459;DHT22;2752;49.992;8.422;2023-04-23T13:51:12;20.80;1.00
5459;DHT22;2752;49.992;8.422;2023-04-23T13:53:39;20.90;1.00
5459;DHT22;2752;49.992;8.422;2023-04-23T13:56:07;21.10;1.00
5459;DHT22;2752;49.992;8.422;2023-04-23T13:58:34;21.30;1.00
5459;DHT22;2752;49.992;8.422;2023-04-23T14:01:01;21.40;1.00
5459;DHT22;2752;49.992;8.422;2023-04-23T14:03:27;21.50;1.00
5459;DHT22;2752;49.992;8.422;2023-04-23T14:05:55;21.60;1.00
5459;DHT22;2752;49.992;8.422;2023-04-23T14:08:23;21.60;1.00
5459;DHT22;2752;49.992;8.422;2023-04-23T14:10:49;21.80;1.00
5459;DHT22;2752;49.992;8.422;2023-04-23T14:13:16;21.80;1.00
5459;DHT22;2752;49.992;8.422;2023-04-23T14:15:43;21.80;1.00
5459;DHT22;2752;49.992;8.422;2023-04-23T14:18:09;21.70;1.00
5459;DHT22;2752;49.992;8.422;2023-04-23T14:20:36;21.80;1.00
5459;DHT22;2752;49.992;8.422;2023-04-23T14:26:32;21.60;1.00
5459;DHT22;2752;49.992;8.422;2023-04-23T14:29:02;21.50;1.00
5459;DHT22;2752;49.992;8.422;2023-04-23T14:31:31;21.50;1.00
5459;DHT22;2752;49.992;8.422;2023-04-23T14:33:58;21.40;1.00
5459;DHT22;2752;49.992;8.422;2023-04-23T14:36:25;21.40;1.00
5459;DHT22;2752;49.992;8.422;2023-04-23T14:38:53;21.20;1.00
5459;DHT22;2752;49.992;8.422;2023-04-23T14:41:20;21.00;1.00
5459;DHT22;2752;49.992;8.422;2023-04-23T14:43:46;21.00;1.00
5459;DHT22;2752;49.992;8.422;2023-04-23T14:46:13;21.10;1.00
5459;DHT22;2752;49.992;8.422;2023-04-23T14:48:40;21.10;1.00
5459;DHT22;2752;49.992;8.422;2023-04-23T14:51:06;21.00;1.00
5459;DHT22;2752;49.992;8.422;2023-04-23T14:53:33;21.00;1.00
5459;DHT22;2752;49.992;8.422;2023-04-23T14:56:01;20.80;1.00
5459;DHT22;2752;49.992;8.422;2023-04-23T15:00:55;20.70;1.00
5459;DHT22;2752;49.992;8.422;2023-04-23T15:03:22;20.60;1.00
5459;DHT22;2752;49.992;8.422;2023-04-23T15:05:50;20.70;1.00
5459;DHT22;2752;49.992;8.422;2023-04-23T15:08:17;20.70;1.00
5459;DHT22;2752;49.992;8.422;2023-04-23T15:10:44;20.60;1.00
5459;DHT22;2752;49.992;8.422;2023-04-23T15:13:30;20.50;1.00
5459;DHT22;2752;49.992;8.422;2023-04-23T15:16:01;20.60;1.00
5459;DHT22;2752;49.992;8.422;2023-04-23T15:18:30;20.40;1.00
5459;DHT22;2752;49.992;8.422;2023-04-23T15:20:58;20.30;1.00
5459;DHT22;2752;49.992;8.422;2023-04-23T15:23:26;20.20;1.00
5459;DHT22;2752;49.992;8.422;2023-04-23T15:25:52;20.10;1.00
5459;DHT22;2752;49.992;8.422;2023-04-23T15:28:20;20.10;1.00
5459;DHT22;2752;49.992;8.422;2023-04-23T15:30:47;20.20;1.00
5459;DHT22;2752;49.992;8.422;2023-04-23T15:33:14;20.10;1.00
5459;DHT22;2752;49.992;8.422;2023-04-23T15:35:42;20.10;1.00
5459;DHT22;2752;49.992;8.422;2023-04-23T15:38:08;20.10;1.00
5459;DHT22;2752;49.992;8.422;2023-04-23T15:40:35;20.10;1.00
5459;DHT22;2752;49.992;8.422;2023-04-23T15:43:06;20.00;1.00
5459;DHT22;2752;49.992;8.422;2023-04-23T15:45:34;19.90;1.00
5459;DHT22;2752;49.992;8.422;2023-04-23T15:48:01;19.90;1.00
5459;DHT22;2752;49.992;8.422;2023-04-23T15:50:27;19.80;1.00
5459;DHT22;2752;49.992;8.422;2023-04-23T15:52:54;19.80;1.00
5459;DHT22;2752;49.992;8.422;2023-04-23T15:55:22;19.80;1.00
5459;DHT22;2752;49.992;8.422;2023-04-23T15:57:49;19.80;1.00
5459;DHT22;2752;49.992;8.422;2023-04-23T16:00:16;19.70;1.00
5459;DHT22;2752;49.992;8.422;2023-04-23T16:02:44;19.60;1.00
5459;DHT22;2752;49.992;8.422;2023-04-23T16:05:11;19.40;1.00
5459;DHT22;2752;49.992;8.422;2023-04-23T16:07:38;19.20;1.00
5459;DHT22;2752;49.992;8.422;2023-04-23T16:10:06;19.30;1.00
5459;DHT22;2752;49.992;8.422;2023-04-23T16:12:33;19.00;1.00
5459;DHT22;2752;49.992;8.422;2023-04-23T16:15:01;18.50;1.00
5459;DHT22;2752;49.992;8.422;2023-04-23T16:17:28;17.70;1.00
5459;DHT22;2752;49.992;8.422;2023-04-23T16:19:56;17.10;1.00